Terminal Aerodrome Forecast
Issued by NWS Topeka, KS

Home | Current Version | Previous Version | Text Only | Print | Product List | Glossary On
Versions: 1 2 3 4 5 6 7 8 9 10 11 12 13 14 15 16 17 18 19 20
000
FTUS43 KTOP 240520
TAFTOP
TAF
KTOP 240520Z 2406/2506 30009KT P6SM SCT100 WS010/34040KT
     FM241300 31014G21KT P6SM FEW150
     FM241500 33021G31KT P6SM SKC
     FM242300 32014G22KT P6SM SKC
     FM250100 30008KT P6SM SKC=

USA.gov is the U.S. government's official web portal to all federal, state and local government web resources and services.